createdAt,value
2023-12-23T00:00:07.376Z,73.62
2023-12-23T00:03:35.419Z,74.10
2023-12-23T00:07:04.370Z,74.27
2023-12-23T00:10:32.698Z,74.41
2023-12-23T00:13:59.971Z,74.60
2023-12-23T00:17:27.249Z,74.73
2023-12-23T00:20:55.688Z,74.48
2023-12-23T00:24:25.454Z,74.50
2023-12-23T00:27:51.146Z,74.37
2023-12-23T00:31:18.424Z,74.50
2023-12-23T00:34:46.086Z,74.34
2023-12-23T00:38:13.958Z,74.71
2023-12-23T00:41:44.192Z,74.57
2023-12-23T00:45:11.591Z,74.67
2023-12-23T00:48:39.234Z,74.65
2023-12-23T00:52:07.010Z,74.45
2023-12-23T00:55:33.994Z,74.74
2023-12-23T00:59:00.781Z,74.90
2023-12-23T01:02:27.665Z,74.95
2023-12-23T01:05:55.017Z,75.08
2023-12-23T01:09:21.882Z,74.86
2023-12-23T01:12:48.643Z,74.93
2023-12-23T01:16:15.557Z,74.51
2023-12-23T01:19:42.425Z,74.43
2023-12-23T01:23:09.227Z,74.18
2023-12-23T01:26:36.124Z,74.39
2023-12-23T01:30:04.038Z,74.45
2023-12-23T01:33:31.297Z,74.48
2023-12-23T01:36:58.429Z,74.42
2023-12-23T01:40:26.693Z,74.02
2023-12-23T01:43:53.425Z,73.95
2023-12-23T01:47:20.756Z,74.00
2023-12-23T01:50:47.648Z,73.52
2023-12-23T01:54:14.905Z,73.49
2023-12-23T01:57:42.652Z,73.52
2023-12-23T02:01:10.282Z,73.48
2023-12-23T02:04:37.372Z,73.50
2023-12-23T02:08:04.793Z,73.48
2023-12-23T02:11:38.584Z,73.67
2023-12-23T02:15:10.781Z,73.50
2023-12-23T02:18:37.999Z,73.32
2023-12-23T02:22:04.920Z,73.09
2023-12-23T02:25:31.904Z,73.33
2023-12-23T02:29:00.635Z,73.22
2023-12-23T02:32:29.547Z,72.97
2023-12-23T02:35:56.762Z,72.80
2023-12-23T02:39:23.639Z,72.91
2023-12-23T02:42:53.136Z,72.98
2023-12-23T02:46:20.241Z,72.72
2023-12-23T02:49:47.122Z,73.01
2023-12-23T02:53:13.981Z,73.07
2023-12-23T02:56:41.099Z,73.02
2023-12-23T03:00:10.199Z,73.08
2023-12-23T03:03:37.393Z,73.08
2023-12-23T03:07:04.303Z,73.18
2023-12-23T03:10:31.045Z,73.04
2023-12-23T03:13:58.423Z,73.15
2023-12-23T03:17:26.753Z,73.02
2023-12-23T03:20:53.809Z,73.08
2023-12-23T03:24:20.733Z,73.50
2023-12-23T03:27:47.526Z,73.27
2023-12-23T03:31:14.310Z,73.76
2023-12-23T03:34:42.394Z,74.03
2023-12-23T03:38:09.363Z,73.73
2023-12-23T03:41:36.196Z,73.59
2023-12-23T03:45:03.085Z,73.77
2023-12-23T03:48:31.055Z,73.76
2023-12-23T03:51:58.143Z,74.14
2023-12-23T03:55:30.384Z,74.02
2023-12-23T03:58:59.551Z,74.20
2023-12-23T04:02:26.370Z,74.70
2023-12-23T04:05:53.190Z,74.68
2023-12-23T04:09:21.558Z,74.89
2023-12-23T04:12:48.468Z,75.08
2023-12-23T04:16:15.977Z,75.34
2023-12-23T04:19:42.959Z,75.40
2023-12-23T04:23:09.926Z,75.51
2023-12-23T04:26:38.469Z,75.71
2023-12-23T04:30:06.108Z,75.54
2023-12-23T04:33:35.690Z,75.83
2023-12-23T04:37:02.542Z,76.18
2023-12-23T04:40:29.792Z,76.79
2023-12-23T04:43:57.114Z,76.79
2023-12-23T04:47:24.236Z,76.99
2023-12-23T04:50:51.391Z,77.20
2023-12-23T04:54:18.883Z,77.29
2023-12-23T04:57:45.609Z,77.47
2023-12-23T05:01:12.460Z,77.76
2023-12-23T05:04:39.394Z,78.05
2023-12-23T05:08:08.671Z,78.11
2023-12-23T05:11:35.454Z,78.26
2023-12-23T05:15:02.252Z,78.36
2023-12-23T05:18:29.289Z,78.55
2023-12-23T05:21:58.611Z,78.50
2023-12-23T05:25:25.475Z,78.58
2023-12-23T05:28:53.172Z,78.35
2023-12-23T05:32:20.615Z,78.73
2023-12-23T05:35:47.576Z,78.71
2023-12-23T05:39:14.397Z,79.02
2023-12-23T05:42:41.058Z,79.06
2023-12-23T05:46:07.878Z,78.96
2023-12-23T05:49:34.737Z,79.14
2023-12-23T05:53:01.534Z,79.14
2023-12-23T05:56:28.418Z,79.23
2023-12-23T06:00:08.288Z,79.33
2023-12-23T06:03:39.819Z,79.46
2023-12-23T06:07:07.131Z,79.48
2023-12-23T06:10:43.640Z,79.25
2023-12-23T06:14:17.644Z,79.25
2023-12-23T06:17:44.545Z,79.02
2023-12-23T06:21:11.458Z,78.88
2023-12-23T06:24:38.115Z,78.99
2023-12-23T06:28:06.135Z,78.46
2023-12-23T06:31:32.803Z,78.66
2023-12-23T06:34:59.764Z,78.93
2023-12-23T06:38:26.650Z,79.10
2023-12-23T06:41:53.772Z,79.41
2023-12-23T06:45:20.577Z,79.64
2023-12-23T06:48:47.513Z,79.91
2023-12-23T06:52:14.897Z,79.87
2023-12-23T06:55:41.955Z,79.82
2023-12-23T06:59:11.269Z,79.99
2023-12-23T07:02:38.131Z,80.02
2023-12-23T07:06:05.388Z,79.68
2023-12-23T07:09:32.281Z,80.04
2023-12-23T07:12:59.167Z,80.18
2023-12-23T07:16:26.067Z,80.02
2023-12-23T07:19:52.861Z,80.15
2023-12-23T07:23:19.628Z,79.78
2023-12-23T07:26:46.367Z,79.72
2023-12-23T07:30:16.100Z,79.87
2023-12-23T07:33:45.099Z,80.00
2023-12-23T07:37:12.646Z,79.92
2023-12-23T07:40:40.375Z,80.27
2023-12-23T07:44:07.540Z,80.28
2023-12-23T07:47:34.329Z,80.75
2023-12-23T07:51:01.132Z,80.66
2023-12-23T07:54:28.637Z,80.81
2023-12-23T07:57:55.425Z,80.94
2023-12-23T08:01:22.760Z,81.25
2023-12-23T08:04:49.638Z,81.12
2023-12-23T08:08:16.607Z,81.01
2023-12-23T08:11:46.717Z,80.73
2023-12-23T08:15:14.158Z,80.69
2023-12-23T08:18:41.725Z,80.67
2023-12-23T08:22:08.884Z,80.76
2023-12-23T08:25:36.068Z,80.23
2023-12-23T08:29:02.818Z,80.06
2023-12-23T08:32:30.323Z,79.92
2023-12-23T08:35:57.324Z,79.98
2023-12-23T08:39:24.186Z,80.07
2023-12-23T08:42:51.481Z,79.34
2023-12-23T08:46:18.590Z,79.20
2023-12-23T08:49:45.437Z,78.99
2023-12-23T08:53:14.435Z,78.93
2023-12-23T08:56:42.919Z,78.04
2023-12-23T09:00:12.563Z,78.11
2023-12-23T09:03:38.850Z,77.63
2023-12-23T09:07:09.773Z,77.67
2023-12-23T09:10:41.002Z,77.33
2023-12-23T09:14:08.869Z,77.08
2023-12-23T09:17:37.976Z,77.03
2023-12-23T09:21:05.004Z,76.41
2023-12-23T09:24:31.846Z,76.43
2023-12-23T09:27:58.774Z,76.42
2023-12-23T09:31:25.622Z,76.36
2023-12-23T09:34:54.305Z,76.93
2023-12-23T09:38:21.549Z,76.90
2023-12-23T09:41:49.499Z,76.78
2023-12-23T09:45:18.034Z,76.52
2023-12-23T09:48:45.117Z,76.56
2023-12-23T09:52:13.441Z,76.45
2023-12-23T09:55:41.742Z,76.38
2023-12-23T09:59:11.654Z,75.84
2023-12-23T10:02:40.078Z,75.89
2023-12-23T10:06:08.615Z,75.73
2023-12-23T10:09:35.626Z,76.05
2023-12-23T10:13:03.203Z,76.06
2023-12-23T10:16:29.904Z,76.45
2023-12-23T10:19:57.772Z,76.55
2023-12-23T10:23:24.680Z,76.61
2023-12-23T10:26:51.444Z,76.74
2023-12-23T10:30:20.295Z,76.92
2023-12-23T10:33:54.014Z,76.96
2023-12-23T10:37:21.708Z,77.16
2023-12-23T10:40:53.866Z,77.07
2023-12-23T10:44:22.488Z,77.06
2023-12-23T10:47:51.366Z,76.93
2023-12-23T10:51:20.223Z,76.74
2023-12-23T10:54:48.025Z,76.75
2023-12-23T10:58:15.937Z,76.49
2023-12-23T11:01:44.877Z,76.04
2023-12-23T11:05:15.223Z,76.17
2023-12-23T11:08:44.541Z,76.19
2023-12-23T11:12:12.277Z,76.00
2023-12-23T11:15:41.657Z,75.95
2023-12-23T11:19:08.580Z,76.11
2023-12-23T11:22:42.121Z,75.90
2023-12-23T11:26:43.186Z,75.58
2023-12-23T11:30:12.586Z,75.94
2023-12-23T11:33:40.657Z,75.19
2023-12-23T11:37:08.243Z,75.28
2023-12-23T11:40:34.930Z,75.22
2023-12-23T11:44:03.578Z,75.00
2023-12-23T11:47:31.112Z,74.92
2023-12-23T11:51:00.129Z,74.87
2023-12-23T11:54:27.303Z,74.82
2023-12-23T11:57:54.350Z,75.20
2023-12-23T12:01:22.278Z,75.43
2023-12-23T12:04:49.187Z,75.61
2023-12-23T12:08:17.112Z,75.74
2023-12-23T12:11:45.140Z,75.96
2023-12-23T12:15:13.212Z,76.24
2023-12-23T12:18:41.632Z,76.44
2023-12-23T12:22:08.756Z,76.56
2023-12-23T12:25:35.558Z,76.69
2023-12-23T12:29:02.378Z,76.90
2023-12-23T12:32:29.484Z,77.24
2023-12-23T12:35:56.244Z,77.92
2023-12-23T12:39:24.228Z,78.46
2023-12-23T12:42:53.089Z,78.86
2023-12-23T12:46:20.683Z,79.64
2023-12-23T12:49:59.482Z,79.72
2023-12-23T12:53:33.488Z,80.02
2023-12-23T12:57:00.461Z,80.48
2023-12-23T13:00:27.768Z,80.66
2023-12-23T13:03:54.813Z,80.74
2023-12-23T13:07:22.312Z,81.04
2023-12-23T13:10:49.281Z,81.10
2023-12-23T13:14:16.695Z,81.83
2023-12-23T13:17:43.744Z,82.18
2023-12-23T13:21:10.873Z,82.08
2023-12-23T13:24:37.475Z,82.53
2023-12-23T13:28:04.349Z,83.12
2023-12-23T13:31:31.246Z,83.27
2023-12-23T13:35:00.951Z,83.58
2023-12-23T13:38:31.312Z,83.65
2023-12-23T13:41:58.112Z,83.76
2023-12-23T13:45:25.035Z,83.85
2023-12-23T13:48:51.886Z,83.99
2023-12-23T13:52:19.482Z,83.67
2023-12-23T13:55:47.792Z,83.67
2023-12-23T13:59:14.625Z,83.78
2023-12-23T14:02:41.374Z,83.99
2023-12-23T14:06:08.914Z,84.15
2023-12-23T14:09:37.259Z,84.07
2023-12-23T14:13:04.167Z,83.96
2023-12-23T14:16:32.141Z,83.94
2023-12-23T14:19:59.096Z,84.11
2023-12-23T14:23:27.845Z,84.25
2023-12-23T14:26:58.534Z,84.68
2023-12-23T14:30:25.915Z,84.48
2023-12-23T14:33:53.665Z,85.02
2023-12-23T14:37:22.113Z,84.93
2023-12-23T14:40:49.506Z,84.68
2023-12-23T14:44:16.193Z,85.32
2023-12-23T14:47:46.128Z,85.36
2023-12-23T14:51:13.039Z,85.89
2023-12-23T14:54:39.653Z,85.95
2023-12-23T14:58:06.536Z,86.02
2023-12-23T15:01:36.625Z,86.53
2023-12-23T15:05:03.781Z,87.00
2023-12-23T15:08:30.671Z,87.36
2023-12-23T15:11:57.661Z,87.65
2023-12-23T15:15:25.104Z,87.68
2023-12-23T15:18:53.773Z,87.84
2023-12-23T15:22:22.028Z,88.17
2023-12-23T15:25:48.852Z,87.66
2023-12-23T15:29:16.669Z,87.94
2023-12-23T15:32:43.640Z,88.43
2023-12-23T15:36:12.566Z,87.88
2023-12-23T15:39:39.270Z,88.05
2023-12-23T15:43:06.170Z,87.95
2023-12-23T15:46:33.111Z,87.78
2023-12-23T15:50:00.314Z,88.01
2023-12-23T15:53:27.507Z,88.32
2023-12-23T15:56:54.522Z,88.23
2023-12-23T16:00:22.556Z,88.39
2023-12-23T16:03:50.101Z,88.53
2023-12-23T16:07:17.195Z,88.52
2023-12-23T16:10:44.752Z,88.52
2023-12-23T16:14:12.304Z,88.40
2023-12-23T16:17:39.341Z,88.62
2023-12-23T16:21:07.374Z,88.65
2023-12-23T16:24:34.618Z,88.72
2023-12-23T16:28:01.669Z,88.51
2023-12-23T16:31:29.209Z,88.36
2023-12-23T16:34:57.370Z,88.38
2023-12-23T16:38:24.479Z,88.13
2023-12-23T16:41:51.346Z,87.96
2023-12-23T16:45:18.314Z,87.81
2023-12-23T16:48:45.658Z,87.91
2023-12-23T16:52:12.471Z,88.15
2023-12-23T16:55:39.198Z,88.40
2023-12-23T16:59:06.235Z,88.12
2023-12-23T17:02:33.248Z,88.51
2023-12-23T17:06:00.643Z,88.88
2023-12-23T17:09:27.544Z,88.95
2023-12-23T17:12:54.559Z,89.33
2023-12-23T17:16:22.246Z,89.73
2023-12-23T17:19:49.527Z,90.06
2023-12-23T17:23:16.204Z,90.39
2023-12-23T17:26:43.121Z,90.28
2023-12-23T17:30:12.067Z,90.29
2023-12-23T17:33:39.414Z,90.31
2023-12-23T17:37:06.828Z,90.80
2023-12-23T17:40:33.684Z,90.20
2023-12-23T17:44:00.982Z,90.27
2023-12-23T17:47:28.658Z,90.30
2023-12-23T17:51:00.018Z,90.11
2023-12-23T17:54:28.123Z,90.16
2023-12-23T17:57:55.464Z,90.21
2023-12-23T18:01:22.939Z,90.09
2023-12-23T18:04:50.593Z,90.01
2023-12-23T18:08:19.479Z,89.80
2023-12-23T18:11:46.751Z,89.58
2023-12-23T18:15:14.683Z,89.62
2023-12-23T18:18:41.657Z,89.50
2023-12-23T18:22:08.753Z,89.41
2023-12-23T18:25:35.617Z,89.33
2023-12-23T18:29:03.770Z,89.16
2023-12-23T18:32:30.564Z,89.21
2023-12-23T18:35:57.635Z,89.34
2023-12-23T18:39:25.083Z,89.50
2023-12-23T18:42:52.322Z,89.48
2023-12-23T18:46:19.639Z,89.34
2023-12-23T18:49:47.215Z,89.55
2023-12-23T18:53:14.096Z,89.77
2023-12-23T18:56:41.373Z,89.94
2023-12-23T19:00:10.739Z,89.58
2023-12-23T19:03:36.159Z,89.71
2023-12-23T19:07:03.175Z,89.81
2023-12-23T19:10:30.072Z,89.75
2023-12-23T19:13:56.962Z,89.64
2023-12-23T19:17:23.806Z,89.84
2023-12-23T19:20:55.174Z,89.96
2023-12-23T19:24:23.763Z,89.94
2023-12-23T19:27:51.884Z,90.26
2023-12-23T19:31:19.783Z,90.52
2023-12-23T19:34:46.738Z,90.33
2023-12-23T19:38:14.080Z,90.27
2023-12-23T19:41:41.358Z,90.13
2023-12-23T19:45:12.709Z,89.85
2023-12-23T19:48:40.077Z,89.78
2023-12-23T19:52:08.400Z,90.04
2023-12-23T19:55:37.337Z,89.98
2023-12-23T19:59:05.311Z,89.61
2023-12-23T20:02:32.455Z,89.30
2023-12-23T20:05:59.858Z,89.70
2023-12-23T20:09:27.240Z,89.52
2023-12-23T20:17:56.134Z,89.71
2023-12-23T20:21:35.192Z,89.39
2023-12-23T20:25:04.652Z,89.28
2023-12-23T20:28:31.655Z,89.36
2023-12-23T20:31:58.842Z,89.18
2023-12-23T20:35:28.466Z,89.20
2023-12-23T20:38:57.610Z,88.95
2023-12-23T20:42:32.374Z,89.02
2023-12-23T20:46:01.391Z,89.27
2023-12-23T20:49:30.604Z,89.24
2023-12-23T20:52:58.008Z,89.48
2023-12-23T20:56:26.573Z,89.30
2023-12-23T20:59:54.957Z,89.59
2023-12-23T21:03:23.986Z,89.71
2023-12-23T21:06:53.273Z,89.94
2023-12-23T21:10:20.220Z,90.24
2023-12-23T21:13:47.376Z,90.02
2023-12-23T21:17:14.731Z,90.00
2023-12-23T21:20:41.993Z,90.16
2023-12-23T21:24:11.098Z,90.24
2023-12-23T21:27:38.040Z,90.19
2023-12-23T21:31:05.015Z,90.57
2023-12-23T21:34:32.128Z,90.46
2023-12-23T21:38:01.240Z,90.26
2023-12-23T21:41:28.350Z,90.38
2023-12-23T21:44:59.758Z,90.35
2023-12-23T21:48:26.886Z,90.28
2023-12-23T21:51:53.632Z,90.32
2023-12-23T21:55:20.812Z,90.27
2023-12-23T21:58:48.605Z,90.62
2023-12-23T22:02:17.170Z,90.70
2023-12-23T22:05:44.533Z,90.64
2023-12-23T22:09:12.256Z,90.80
2023-12-23T22:12:39.177Z,90.49
2023-12-23T22:16:06.666Z,90.47
2023-12-23T22:19:33.785Z,90.44
2023-12-23T22:23:01.794Z,90.53
2023-12-23T22:26:29.162Z,90.72
2023-12-23T22:29:56.800Z,91.24
2023-12-23T22:33:25.787Z,91.47
2023-12-23T22:36:57.542Z,91.54
2023-12-23T22:40:25.379Z,91.30
2023-12-23T22:43:52.613Z,91.52
2023-12-23T22:47:28.291Z,91.52
2023-12-23T22:50:58.597Z,91.47
2023-12-23T22:54:31.644Z,91.70
2023-12-23T22:58:02.748Z,91.70
2023-12-23T23:01:34.488Z,91.61
2023-12-23T23:05:01.584Z,91.64
2023-12-23T23:08:28.670Z,91.57
2023-12-23T23:11:55.722Z,91.54
2023-12-23T23:15:22.790Z,91.47
2023-12-23T23:18:50.343Z,91.40
2023-12-23T23:22:24.784Z,91.41
2023-12-23T23:26:03.591Z,91.25
2023-12-23T23:29:34.873Z,91.45
2023-12-23T23:33:01.956Z,91.05
2023-12-23T23:36:29.367Z,91.00
2023-12-23T23:39:56.413Z,91.00
2023-12-23T23:43:24.072Z,91.22
2023-12-23T23:46:52.286Z,91.09
2023-12-23T23:50:19.498Z,91.17
2023-12-23T23:54:00.799Z,91.51
2023-12-23T23:57:31.451Z,91.34
